Time;durP1;ratioP1;P1;durP2;ratioP2;P2;SDS_P1;SDS_P2;PMS_P1;PMS_P2;Temp;Humidity;BMP_temperature;BMP_pressure;BME280_temperature;BME280_humidity;BME280_pressure;Samples;Min_cycle;Max_cycle;Signal;HPM_P1;HPM_P2
2023/06/15 00:02:13;;;;;;;;;;;;;;;19.10;53.66;100307.87;5423557;32;35100;-69
2023/06/15 00:05:16;;;;;;;;;;;;;;;19.42;52.73;100303.59;5424368;32;35405;-69
2023/06/15 00:08:19;;;;;;;;;;;;;;;19.44;52.54;100299.00;5400454;32;34850;-67
2023/06/15 00:11:21;;;;;;;;;;;;;;;19.29;52.85;100281.53;5413415;32;35212;-70
2023/06/15 00:14:23;;;;;;;;;;;;;;;19.65;52.20;100301.00;5426373;32;34678;-67
2023/06/15 00:17:25;;;;;;;;;;;;;;;18.76;54.21;100288.28;5422462;32;34506;-69
2023/06/15 00:20:28;;;;;;;;;;;;;;;18.28;55.98;100307.69;5425220;32;34645;-71
2023/06/15 00:23:32;;;;;;;;;;;;;;;18.41;56.05;100300.50;5431071;32;35058;-68
2023/06/15 00:26:34;;;;;;;;;;;;;;;18.20;56.64;100307.38;5428047;32;34884;-65
2023/06/15 00:29:36;;;;;;;;;;;;;;;18.11;57.13;100300.09;5427089;32;34948;-69
2023/06/15 00:32:38;;;;;;;;;;;;;;;18.48;55.92;100300.06;5411276;32;35324;-69
2023/06/15 00:35:41;;;;;;;;;;;;;;;17.94;57.86;100305.75;5424212;32;35604;-65
2023/06/15 00:38:42;;;;;;;;;;;;;;;18.19;56.95;100302.19;5428622;32;34830;-65
2023/06/15 00:41:44;;;;;;;;;;;;;;;19.05;54.42;100291.37;5421467;32;35222;-68
2023/06/15 00:44:46;;;;;;;;;;;;;;;19.38;53.35;100302.13;5424160;32;35317;-69
2023/06/15 00:47:48;;;;;;;;;;;;;;;19.25;53.80;100292.53;5424347;32;35230;-65
2023/06/15 00:50:50;;;;;;;;;;;;;;;18.80;54.73;100295.88;5425423;32;34820;-69
2023/06/15 00:53:52;;;;;;;;;;;;;;;18.12;57.11;100310.59;5409537;32;34341;-70
2023/06/15 00:56:54;;;;;;;;;;;;;;;17.76;58.31;100298.09;5408443;32;35054;-65
2023/06/15 00:59:56;;;;;;;;;;;;;;;18.38;57.00;100302.56;5412237;32;34313;-65
2023/06/15 01:02:59;;;;;;;;;;;;;;;18.80;55.42;100301.22;5396721;32;35745;-66
2023/06/15 01:06:01;;;;;;;;;;;;;;;18.64;55.72;100300.63;5411957;32;34924;-69
2023/06/15 01:09:03;;;;;;;;;;;;;;;17.78;58.28;100292.69;5424423;32;34389;-70
2023/06/15 01:12:06;;;;;;;;;;;;;;;17.44;59.93;100299.47;5425386;32;34591;-68
2023/06/15 01:15:08;;;;;;;;;;;;;;;18.26;57.45;100292.81;5410849;32;35379;-65
2023/06/15 01:18:10;;;;;;;;;;;;;;;18.39;56.89;100283.81;5412168;32;35062;-69
2023/06/15 01:21:15;;;;;;;;;;;;;;;18.09;58.00;100286.03;5413857;32;35469;-69
2023/06/15 01:24:20;;;;;;;;;;;;;;;18.08;58.69;100274.53;5431205;32;35171;-65
2023/06/15 01:27:24;;;;;;;;;;;;;;;17.58;60.53;100286.06;5429543;32;34807;-68
2023/06/15 01:30:46;;;;;;;;;;;;;;;17.64;61.19;100284.78;5425823;32;34247;-70
2023/06/15 01:33:49;;;;;;;;;;;;;;;17.17;62.59;100292.44;5427012;32;36676;-68
2023/06/15 01:36:51;;;;;;;;;;;;;;;17.54;61.50;100290.75;5415835;32;34935;-69
2023/06/15 01:39:53;;;;;;;;;;;;;;;17.29;62.36;100298.72;5411846;32;34761;-69
2023/06/15 01:42:55;;;;;;;;;;;;;;;17.74;60.73;100284.09;5420525;32;34925;-66
2023/06/15 01:45:57;;;;;;;;;;;;;;;17.23;62.38;100291.16;5411091;32;34433;-64
2023/06/15 01:48:59;;;;;;;;;;;;;;;17.27;62.47;100293.53;5428803;32;35152;-64
2023/06/15 01:52:01;;;;;;;;;;;;;;;16.84;63.94;100282.28;5412181;32;34708;-67
2023/06/15 01:55:03;;;;;;;;;;;;;;;17.68;61.44;100283.63;5411304;32;34861;-68
2023/06/15 01:58:05;;;;;;;;;;;;;;;17.86;60.27;100275.25;5429897;32;34704;-64
2023/06/15 02:01:07;;;;;;;;;;;;;;;17.35;62.22;100285.03;5425118;32;34884;-66
2023/06/15 02:04:09;;;;;;;;;;;;;;;17.48;61.92;100288.53;5429839;32;34684;-69
2023/06/15 02:07:11;;;;;;;;;;;;;;;17.09;63.42;100294.75;5425617;32;34960;-68
2023/06/15 02:10:13;;;;;;;;;;;;;;;17.42;62.73;100296.06;5428251;32;35354;-67
2023/06/15 02:13:15;;;;;;;;;;;;;;;16.69;64.97;100280.63;5426800;32;35004;-64
2023/06/15 02:16:19;;;;;;;;;;;;;;;17.32;62.98;100290.53;5424277;32;35122;-64
2023/06/15 02:19:21;;;;;;;;;;;;;;;17.09;63.96;100299.22;5430127;32;35566;-68
2023/06/15 02:22:23;;;;;;;;;;;;;;;16.90;65.02;100299.59;5424279;32;35000;-65
2023/06/15 02:25:27;;;;;;;;;;;;;;;17.43;63.27;100298.63;5428839;32;34874;-68
2023/06/15 02:28:29;;;;;;;;;;;;;;;17.73;61.64;100295.69;5425100;32;35049;-68
2023/06/15 02:31:31;;;;;;;;;;;;;;;18.06;60.21;100299.56;5427816;32;35483;-64
2023/06/15 02:34:33;;;;;;;;;;;;;;;18.05;60.29;100300.53;5427856;32;34829;-65
2023/06/15 02:37:35;;;;;;;;;;;;;;;17.54;61.93;100305.84;5424384;32;34819;-66
2023/06/15 02:40:37;;;;;;;;;;;;;;;17.20;63.21;100308.19;5423106;32;35462;-68
2023/06/15 02:43:39;;;;;;;;;;;;;;;17.33;62.79;100308.19;5424220;32;35367;-65
2023/06/15 02:46:44;;;;;;;;;;;;;;;17.16;63.36;100305.81;5413530;32;34533;-65
2023/06/15 02:49:47;;;;;;;;;;;;;;;17.66;62.15;100298.84;5426066;32;34137;-66
2023/06/15 02:52:49;;;;;;;;;;;;;;;17.07;63.18;100304.66;5413271;32;34944;-66
2023/06/15 02:55:51;;;;;;;;;;;;;;;17.45;62.46;100311.78;5412239;32;34296;-69
2023/06/15 02:58:54;;;;;;;;;;;;;;;16.53;65.64;100307.28;5424263;32;35035;-69
2023/06/15 03:01:56;;;;;;;;;;;;;;;16.74;65.21;100300.63;5425797;32;34889;-65
2023/06/15 03:04:59;;;;;;;;;;;;;;;16.75;65.30;100301.47;5426180;32;34995;-69
2023/06/15 03:08:01;;;;;;;;;;;;;;;16.96;64.59;100304.50;5428397;32;34670;-66
2023/06/15 03:11:03;;;;;;;;;;;;;;;17.02;64.00;100304.94;5411375;32;36751;-68
2023/06/15 03:14:05;;;;;;;;;;;;;;;17.53;62.07;100304.16;5411675;32;34954;-66
2023/06/15 03:17:10;;;;;;;;;;;;;;;17.11;63.47;100303.47;5427282;32;35358;-66
2023/06/15 03:20:12;;;;;;;;;;;;;;;16.85;64.32;100307.03;5423039;32;34658;-64
2023/06/15 03:23:14;;;;;;;;;;;;;;;16.76;65.22;100312.00;5429463;32;34820;-64
2023/06/15 03:26:16;;;;;;;;;;;;;;;17.08;63.43;100311.66;5425000;32;34553;-68
2023/06/15 03:29:19;;;;;;;;;;;;;;;16.93;64.49;100310.00;5429061;32;35206;-68
2023/06/15 03:32:21;;;;;;;;;;;;;;;16.97;64.90;100322.13;5422506;32;35702;-68
2023/06/15 03:35:23;;;;;;;;;;;;;;;16.89;64.60;100316.50;5429657;32;34654;-65
2023/06/15 03:38:25;;;;;;;;;;;;;;;17.18;63.54;100318.03;5425572;32;34688;-68
2023/06/15 03:41:27;;;;;;;;;;;;;;;16.86;64.95;100314.03;5422878;32;35393;-67
2023/06/15 03:44:29;;;;;;;;;;;;;;;17.10;64.20;100317.69;5427829;32;35978;-68
2023/06/15 03:47:34;;;;;;;;;;;;;;;16.89;63.97;100321.81;5422585;32;34905;-66
2023/06/15 03:50:36;;;;;;;;;;;;;;;17.27;62.78;100324.53;5428461;32;34549;-65
2023/06/15 03:53:41;;;;;;;;;;;;;;;17.09;63.60;100328.44;5425586;32;34227;-65
2023/06/15 03:56:44;;;;;;;;;;;;;;;17.19;63.39;100330.34;5425979;32;34454;-68
2023/06/15 03:59:45;;;;;;;;;;;;;;;17.26;63.29;100325.47;5424466;32;35130;-64
2023/06/15 04:02:47;;;;;;;;;;;;;;;17.01;64.03;100328.94;5422959;32;35151;-65
2023/06/15 04:05:49;;;;;;;;;;;;;;;18.23;60.55;100325.81;5428468;32;34467;-64
2023/06/15 04:08:51;;;;;;;;;;;;;;;18.20;60.11;100325.16;5424690;32;34395;-65
2023/06/15 04:11:56;;;;;;;;;;;;;;;17.33;63.37;100334.75;5427932;32;36211;-69
2023/06/15 04:14:58;;;;;;;;;;;;;;;17.76;61.72;100332.66;5425913;32;33838;-67
2023/06/15 04:18:00;;;;;;;;;;;;;;;17.56;62.64;100338.47;5413025;32;34279;-65
2023/06/15 04:21:03;;;;;;;;;;;;;;;17.86;61.43;100330.22;5428527;32;34474;-65
2023/06/15 04:24:05;;;;;;;;;;;;;;;18.05;60.15;100332.44;5424374;32;34886;-66
2023/06/15 04:27:12;;;;;;;;;;;;;;;18.41;58.81;100328.94;5428214;32;34821;-66
2023/06/15 04:30:16;;;;;;;;;;;;;;;18.37;58.69;100332.78;5424071;32;34724;-66
2023/06/15 04:33:19;;;;;;;;;;;;;;;18.65;56.15;100336.94;5413108;32;35737;-67
2023/06/15 04:36:21;;;;;;;;;;;;;;;17.99;57.47;100328.41;5410678;32;34126;-69
2023/06/15 04:39:25;;;;;;;;;;;;;;;19.26;54.38;100332.41;5421584;32;34691;-68
2023/06/15 04:42:32;;;;;;;;;;;;;;;18.49;56.28;100341.69;5424993;32;34583;-66
2023/06/15 04:45:37;;;;;;;;;;;;;;;18.32;56.60;100341.09;5409390;32;34332;-65
2023/06/15 04:48:43;;;;;;;;;;;;;;;19.39;53.70;100343.81;5427213;32;34443;-66
2023/06/15 04:51:48;;;;;;;;;;;;;;;19.28;54.54;100349.13;5424557;32;34399;-67
2023/06/15 04:54:50;;;;;;;;;;;;;;;20.31;51.34;100343.78;5428113;32;35535;-66
2023/06/15 04:57:52;;;;;;;;;;;;;;;21.02;49.03;100343.25;5426070;32;35234;-66
2023/06/15 05:00:56;;;;;;;;;;;;;;;21.04;49.44;100349.31;5425720;32;35261;-66
2023/06/15 05:03:58;;;;;;;;;;;;;;;20.28;51.11;100356.38;5430090;32;35335;-68
2023/06/15 05:07:01;;;;;;;;;;;;;;;21.11;48.88;100360.34;5425617;32;33869;-66
2023/06/15 05:10:03;;;;;;;;;;;;;;;21.93;46.43;100357.81;5429877;32;35467;-67
2023/06/15 05:13:05;;;;;;;;;;;;;;;21.90;46.85;100361.63;5426513;32;34304;-70
2023/06/15 05:16:07;;;;;;;;;;;;;;;22.73;44.71;100350.78;5427332;32;34984;-65
2023/06/15 05:19:09;;;;;;;;;;;;;;;21.36;48.00;100359.16;5420909;32;34251;-65
2023/06/15 05:22:11;;;;;;;;;;;;;;;21.55;47.07;100350.44;5426603;32;34372;-69
2023/06/15 05:25:13;;;;;;;;;;;;;;;22.99;43.41;100360.00;5429086;32;35277;-65
2023/06/15 05:28:18;;;;;;;;;;;;;;;21.96;45.72;100370.94;5412920;32;34890;-65
2023/06/15 05:31:19;;;;;;;;;;;;;;;22.84;43.31;100370.25;5427191;32;35563;-65
2023/06/15 05:34:22;;;;;;;;;;;;;;;23.17;42.68;100366.34;5419178;32;35003;-68
2023/06/15 05:37:23;;;;;;;;;;;;;;;23.76;40.85;100349.25;5426307;32;34445;-67
2023/06/15 05:40:25;;;;;;;;;;;;;;;23.73;41.58;100365.59;5419603;32;34948;-66
2023/06/15 05:43:30;;;;;;;;;;;;;;;23.43;41.68;100360.41;5419268;32;35302;-66
2023/06/15 05:46:32;;;;;;;;;;;;;;;23.68;41.08;100372.41;5427007;32;33182;-72
2023/06/15 05:49:34;;;;;;;;;;;;;;;22.72;43.04;100357.97;5416880;32;36218;-68
2023/06/15 05:52:36;;;;;;;;;;;;;;;24.22;39.96;100377.03;5425090;32;35102;-71
2023/06/15 05:55:38;;;;;;;;;;;;;;;24.74;38.71;100366.59;5425848;32;35250;-71
2023/06/15 05:58:40;;;;;;;;;;;;;;;23.40;40.99;100368.75;5411601;32;35028;-69
2023/06/15 06:01:42;;;;;;;;;;;;;;;24.02;40.09;100375.41;5421343;32;34100;-70
2023/06/15 06:04:44;;;;;;;;;;;;;;;24.39;39.58;100375.41;5403933;32;35538;-83
2023/06/15 06:07:46;;;;;;;;;;;;;;;25.89;36.29;100372.00;5392034;32;33785;-66
2023/06/15 06:10:48;;;;;;;;;;;;;;;24.75;37.63;100373.66;5370944;32;33642;-73
2023/06/15 06:13:50;;;;;;;;;;;;;;;23.26;40.86;100369.19;5366250;32;34140;-68
2023/06/15 06:16:52;;;;;;;;;;;;;;;24.19;39.48;100374.62;5383080;32;36561;-77
2023/06/15 06:19:55;;;;;;;;;;;;;;;24.94;37.78;100382.59;5378675;32;34313;-81
2023/06/15 06:22:58;;;;;;;;;;;;;;;24.55;38.44;100377.47;5402580;32;33123;-68
2023/06/15 06:25:59;;;;;;;;;;;;;;;25.79;36.14;100378.50;5422930;32;34358;-69
2023/06/15 06:29:03;;;;;;;;;;;;;;;24.74;38.49;100371.97;5416387;32;35948;-77
2023/06/15 06:32:05;;;;;;;;;;;;;;;24.94;37.71;100372.69;5410064;32;34346;-66
2023/06/15 06:35:07;;;;;;;;;;;;;;;24.47;38.79;100385.41;5413396;32;34276;-77
2023/06/15 06:38:09;;;;;;;;;;;;;;;25.03;37.19;100377.13;5413984;32;34951;-66
2023/06/15 06:41:11;;;;;;;;;;;;;;;26.23;35.39;100381.94;5410117;32;34103;-72
2023/06/15 06:44:14;;;;;;;;;;;;;;;25.32;36.75;100378.78;5417708;32;35772;-71
2023/06/15 06:47:17;;;;;;;;;;;;;;;27.50;33.11;100374.53;5424838;32;35519;-72
2023/06/15 06:50:19;;;;;;;;;;;;;;;28.03;32.25;100373.09;5413549;32;35607;-73
2023/06/15 06:53:21;;;;;;;;;;;;;;;26.62;33.83;100374.22;5412947;32;35354;-67
2023/06/15 06:56:24;;;;;;;;;;;;;;;25.78;35.97;100382.19;5406628;32;35696;-67
2023/06/15 06:59:26;;;;;;;;;;;;;;;27.06;33.54;100378.56;5409823;32;35671;-65
2023/06/15 07:02:44;;;;;;;;;;;;;;;26.67;34.26;100379.13;5421155;32;34235;-74
2023/06/15 07:05:47;;;;;;;;;;;;;;;26.84;34.25;100379.97;5415513;32;34176;-66
2023/06/15 07:08:49;;;;;;;;;;;;;;;27.19;33.82;100373.50;5389238;32;997217;-70
2023/06/15 07:11:52;;;;;;;;;;;;;;;29.18;30.16;100370.69;5420757;32;34358;-81
2023/06/15 07:14:55;;;;;;;;;;;;;;;30.30;28.85;100360.81;5419444;32;34498;-75
2023/06/15 07:18:00;;;;;;;;;;;;;;;28.76;31.25;100360.31;5424453;32;34161;-63
2023/06/15 07:21:01;;;;;;;;;;;;;;;28.24;31.59;100364.41;5420898;32;34221;-67
2023/06/15 07:24:04;;;;;;;;;;;;;;;29.65;28.60;100358.81;5416802;32;35973;-71
2023/06/15 07:27:08;;;;;;;;;;;;;;;30.74;27.26;100355.31;5426130;32;34143;-71
2023/06/15 07:30:11;;;;;;;;;;;;;;;28.24;30.08;100360.88;5418721;32;35422;-79
2023/06/15 07:33:13;;;;;;;;;;;;;;;30.07;27.28;100351.91;5422777;32;35910;-76
2023/06/15 07:36:15;;;;;;;;;;;;;;;28.69;29.36;100351.22;5419069;32;34635;-70
2023/06/15 07:39:17;;;;;;;;;;;;;;;28.30;29.69;100354.75;5419885;32;35919;-69
2023/06/15 07:42:19;;;;;;;;;;;;;;;27.60;31.63;100343.78;5418275;32;34291;-73
2023/06/15 07:45:21;;;;;;;;;;;;;;;28.18;30.06;100346.19;5415611;32;34084;-66
2023/06/15 07:48:23;;;;;;;;;;;;;;;27.22;31.39;100349.72;5414176;32;34344;-67
2023/06/15 07:51:26;;;;;;;;;;;;;;;28.80;29.41;100342.72;5423702;32;36263;-67
2023/06/15 07:54:45;;;;;;;;;;;;;;;29.26;27.96;100340.03;5422013;32;37224;-75
2023/06/15 07:57:47;;;;;;;;;;;;;;;28.66;28.35;100340.75;5420817;32;34141;-77
2023/06/15 08:00:49;;;;;;;;;;;;;;;29.85;27.17;100343.69;5407258;32;35699;-66
2023/06/15 08:03:51;;;;;;;;;;;;;;;29.20;28.24;100332.63;5418057;32;35339;-69
2023/06/15 08:06:53;;;;;;;;;;;;;;;31.92;23.97;100328.59;5421495;32;36145;-68
2023/06/15 08:09:55;;;;;;;;;;;;;;;31.04;25.41;100336.19;5425634;32;35454;-67
2023/06/15 08:12:58;;;;;;;;;;;;;;;31.51;23.76;100332.06;5406697;32;34230;-68
2023/06/15 08:16:00;;;;;;;;;;;;;;;31.07;23.63;100332.28;5422982;32;34480;-67
2023/06/15 08:19:02;;;;;;;;;;;;;;;30.25;24.82;100343.44;5426768;32;34355;-72
2023/06/15 08:22:04;;;;;;;;;;;;;;;29.00;25.25;100335.81;5415608;32;34016;-74
2023/06/15 08:25:08;;;;;;;;;;;;;;;31.38;22.75;100331.97;5425933;32;34414;-73
2023/06/15 08:28:10;;;;;;;;;;;;;;;32.68;21.05;100321.19;5427491;32;33468;-68
2023/06/15 08:31:16;;;;;;;;;;;;;;;30.84;22.58;100325.16;5427075;32;34417;-68
2023/06/15 08:34:18;;;;;;;;;;;;;;;31.57;22.53;100320.41;5423405;32;35444;-67
2023/06/15 08:37:22;;;;;;;;;;;;;;;31.11;22.36;100333.56;5428423;32;35246;-67
2023/06/15 08:40:27;;;;;;;;;;;;;;;30.87;21.75;100324.78;5426889;32;35711;-69
2023/06/15 08:43:29;;;;;;;;;;;;;;;32.77;19.66;100322.66;5420357;32;34298;-70
2023/06/15 08:46:33;;;;;;;;;;;;;;;32.03;19.98;100330.75;5409087;32;34211;-66
2023/06/15 08:49:37;;;;;;;;;;;;;;;31.43;20.90;100332.19;5422346;32;34994;-65
2023/06/15 08:52:41;;;;;;;;;;;;;;;33.10;18.89;100313.75;5424010;32;36294;-71
2023/06/15 08:55:46;;;;;;;;;;;;;;;32.41;19.37;100324.87;5421358;32;35898;-71
2023/06/15 08:58:54;;;;;;;;;;;;;;;31.67;20.35;100318.16;5412429;32;34208;-65
2023/06/15 09:01:56;;;;;;;;;;;;;;;32.13;20.05;100319.50;5422843;32;36731;-70
2023/06/15 09:05:01;;;;;;;;;;;;;;;31.70;20.47;100323.22;5419089;32;37193;-71
2023/06/15 09:08:03;;;;;;;;;;;;;;;32.49;18.96;100309.22;5425860;32;35572;-77
2023/06/15 09:11:06;;;;;;;;;;;;;;;33.06;18.51;100313.34;5419111;32;34176;-71
2023/06/15 09:14:09;;;;;;;;;;;;;;;32.01;19.50;100317.38;5408533;32;34211;-74
2023/06/15 09:17:12;;;;;;;;;;;;;;;32.54;19.04;100311.34;5423165;32;35443;-78
2023/06/15 09:20:15;;;;;;;;;;;;;;;32.80;18.82;100308.66;5419555;32;34802;-74
2023/06/15 09:23:17;;;;;;;;;;;;;;;33.72;18.10;100303.47;5411648;32;35383;-71
2023/06/15 09:26:21;;;;;;;;;;;;;;;34.36;17.40;100306.19;5411104;32;34208;-71
2023/06/15 09:29:23;;;;;;;;;;;;;;;32.60;18.96;100303.19;5408758;32;35400;-78
2023/06/15 09:32:28;;;;;;;;;;;;;;;32.25;19.58;100299.69;5403018;32;35678;-62
2023/06/15 09:35:30;;;;;;;;;;;;;;;32.36;19.15;100302.91;5407971;32;35194;-75
2023/06/15 09:38:33;;;;;;;;;;;;;;;32.86;18.75;100286.09;5425040;32;35002;-70
2023/06/15 09:41:36;;;;;;;;;;;;;;;33.53;18.46;100297.00;5421166;32;34221;-69
2023/06/15 09:44:42;;;;;;;;;;;;;;;32.08;19.82;100292.94;5426648;32;34479;-71
2023/06/15 09:47:44;;;;;;;;;;;;;;;31.54;20.60;100288.19;5411475;32;34441;-70
2023/06/15 09:50:52;;;;;;;;;;;;;;;34.03;18.07;100283.69;5422878;32;35214;-75
2023/06/15 09:53:55;;;;;;;;;;;;;;;30.63;21.19;100292.56;5417685;32;35343;-69
2023/06/15 09:56:57;;;;;;;;;;;;;;;33.42;18.38;100277.50;5429000;32;34377;-74
2023/06/15 10:00:02;;;;;;;;;;;;;;;32.85;18.71;100276.22;5391879;32;34360;-68
2023/06/15 10:03:08;;;;;;;;;;;;;;;32.07;19.71;100280.34;5413131;32;33980;-68
2023/06/15 10:06:13;;;;;;;;;;;;;;;33.46;18.80;100274.37;5431117;32;35411;-67
2023/06/15 10:09:24;;;;;;;;;;;;;;;32.33;19.93;100268.78;5426056;32;35357;-79
2023/06/15 10:12:26;;;;;;;;;;;;;;;34.54;17.65;100255.56;5427333;32;32951;-69
2023/06/15 10:15:29;;;;;;;;;;;;;;;34.27;17.38;100265.75;5423222;32;34379;-69
2023/06/15 10:18:35;;;;;;;;;;;;;;;32.10;20.00;100262.81;5411352;32;37209;-70
2023/06/15 10:21:38;;;;;;;;;;;;;;;33.10;18.73;100270.16;5414528;32;35417;-69
2023/06/15 10:24:41;;;;;;;;;;;;;;;30.71;21.64;100268.88;5421564;32;34231;-72
2023/06/15 10:27:45;;;;;;;;;;;;;;;31.15;21.24;100261.56;5426745;32;34444;-67
2023/06/15 10:31:05;;;;;;;;;;;;;;;31.15;20.69;100259.69;5423841;32;35418;-73
2023/06/15 10:34:21;;;;;;;;;;;;;;;29.22;23.55;100271.88;5412827;32;34269;-71
2023/06/15 10:37:41;;;;;;;;;;;;;;;28.54;23.84;100270.87;5411044;32;34601;-66
2023/06/15 10:40:46;;;;;;;;;;;;;;;30.01;21.46;100260.53;5411005;32;34886;-77
2023/06/15 10:43:58;;;;;;;;;;;;;;;27.58;25.46;100279.19;5427077;32;36317;-71
2023/06/15 10:47:11;;;;;;;;;;;;;;;28.41;24.81;100272.50;5411441;32;35763;-66
2023/06/15 10:50:18;;;;;;;;;;;;;;;27.40;26.30;100273.16;5425538;32;34468;-81
2023/06/15 10:53:25;;;;;;;;;;;;;;;28.34;25.15;100264.25;5425147;32;34547;-73
2023/06/15 10:56:31;;;;;;;;;;;;;;;28.72;24.41;100269.72;5413938;32;34632;-74
2023/06/15 10:59:46;;;;;;;;;;;;;;;28.39;24.54;100264.53;5428372;32;34390;-73
2023/06/15 11:02:50;;;;;;;;;;;;;;;27.52;25.54;100264.50;5421885;32;34395;-67
2023/06/15 11:06:02;;;;;;;;;;;;;;;28.09;25.10;100257.25;5426181;32;35872;-76
2023/06/15 11:09:10;;;;;;;;;;;;;;;27.77;25.50;100261.78;5413026;32;34577;-70
2023/06/15 11:12:30;;;;;;;;;;;;;;;29.28;23.72;100260.31;5401958;32;36057;-70
2023/06/15 11:15:35;;;;;;;;;;;;;;;29.80;22.75;100250.47;5424115;32;37148;-71
2023/06/15 11:18:46;;;;;;;;;;;;;;;29.79;22.61;100254.22;5403873;32;34337;-70
2023/06/15 11:21:59;;;;;;;;;;;;;;;29.14;22.95;100256.56;5403676;32;34232;-69
2023/06/15 11:25:03;;;;;;;;;;;;;;;29.57;22.29;100262.25;5412836;32;36040;-68
2023/06/15 11:28:06;;;;;;;;;;;;;;;30.44;21.20;100246.06;5390061;32;34781;-68
2023/06/15 11:31:08;;;;;;;;;;;;;;;31.19;20.81;100250.13;5402884;32;34042;-68
2023/06/15 11:34:12;;;;;;;;;;;;;;;28.47;24.57;100256.41;5416391;32;36190;-69
2023/06/15 11:37:14;;;;;;;;;;;;;;;28.83;24.03;100259.31;5425379;32;34064;-68
2023/06/15 11:40:16;;;;;;;;;;;;;;;28.48;24.69;100251.84;5422763;32;34427;-70
2023/06/15 11:43:19;;;;;;;;;;;;;;;29.29;24.12;100258.44;5420363;32;34419;-67
2023/06/15 11:46:22;;;;;;;;;;;;;;;28.25;24.06;100251.75;5420961;32;34389;-71
2023/06/15 11:49:32;;;;;;;;;;;;;;;28.23;23.95;100253.81;5396642;32;35939;-71
2023/06/15 11:52:34;;;;;;;;;;;;;;;28.51;23.25;100241.47;5415537;32;34747;-69
2023/06/15 11:55:45;;;;;;;;;;;;;;;28.52;23.47;100243.16;5417798;32;35342;-71
2023/06/15 11:58:47;;;;;;;;;;;;;;;29.07;22.90;100241.25;5398060;32;35355;-78
2023/06/15 12:01:53;;;;;;;;;;;;;;;31.21;20.59;100226.31;5428361;32;35866;-83
2023/06/15 12:04:58;;;;;;;;;;;;;;;32.12;19.64;100223.50;5404585;32;34955;-65
2023/06/15 12:08:00;;;;;;;;;;;;;;;32.74;18.38;100227.84;5416729;32;34207;-77
2023/06/15 12:11:04;;;;;;;;;;;;;;;32.04;19.09;100216.37;5410877;32;35697;-71
2023/06/15 12:14:16;;;;;;;;;;;;;;;30.87;20.73;100215.41;5428774;32;35571;-75
2023/06/15 12:17:33;;;;;;;;;;;;;;;30.16;21.59;100210.72;5420531;32;35268;-75
2023/06/15 12:20:36;;;;;;;;;;;;;;;29.25;22.82;100220.09;5422618;32;35459;-74
2023/06/15 12:23:38;;;;;;;;;;;;;;;29.12;22.87;100201.78;5414305;32;34302;-76
2023/06/15 12:26:41;;;;;;;;;;;;;;;29.75;22.24;100213.09;5416611;32;34375;-70
2023/06/15 12:29:43;;;;;;;;;;;;;;;27.81;23.99;100214.50;5412125;32;35594;-71
2023/06/15 12:32:48;;;;;;;;;;;;;;;28.85;22.58;100210.44;5413594;32;37221;-72
2023/06/15 12:35:54;;;;;;;;;;;;;;;29.42;22.59;100207.19;5419561;32;35398;-68
2023/06/15 12:38:59;;;;;;;;;;;;;;;29.29;22.86;100196.19;5422499;32;34873;-71
2023/06/15 12:42:04;;;;;;;;;;;;;;;28.32;24.29;100201.41;5394334;32;34756;-73
2023/06/15 12:45:07;;;;;;;;;;;;;;;28.85;24.30;100205.03;5417313;32;34332;-72
2023/06/15 12:48:16;;;;;;;;;;;;;;;28.41;24.19;100203.06;5425837;32;34250;-70
2023/06/15 12:51:18;;;;;;;;;;;;;;;28.02;24.01;100193.13;5408127;32;34984;-77
2023/06/15 12:54:20;;;;;;;;;;;;;;;27.32;24.27;100194.91;5420504;32;36467;-64
2023/06/15 12:57:25;;;;;;;;;;;;;;;27.01;24.73;100192.91;5424763;32;34355;-68
2023/06/15 13:00:28;;;;;;;;;;;;;;;27.89;23.21;100192.87;5407416;32;35456;-69
2023/06/15 13:03:31;;;;;;;;;;;;;;;27.93;23.25;100185.25;5407242;32;34519;-71
2023/06/15 13:06:35;;;;;;;;;;;;;;;28.43;22.61;100176.69;5411690;32;34527;-70
2023/06/15 13:09:37;;;;;;;;;;;;;;;28.27;23.19;100177.62;5383216;32;34269;-72
2023/06/15 13:12:39;;;;;;;;;;;;;;;28.58;22.32;100166.75;5381188;32;34192;-74
2023/06/15 13:15:41;;;;;;;;;;;;;;;29.64;21.90;100154.84;5363416;32;36861;-85
2023/06/15 13:18:43;;;;;;;;;;;;;;;28.50;22.63;100164.12;5386965;32;36049;-79
2023/06/15 13:21:46;;;;;;;;;;;;;;;29.94;21.63;100152.91;5383294;32;34233;-70
2023/06/15 13:24:48;;;;;;;;;;;;;;;29.65;19.97;100159.25;5381933;32;34275;-69
2023/06/15 13:27:50;;;;;;;;;;;;;;;29.31;20.32;100169.81;5381774;32;35439;-72
2023/06/15 13:30:55;;;;;;;;;;;;;;;28.38;20.81;100165.56;5384156;32;34147;-70
2023/06/15 13:33:57;;;;;;;;;;;;;;;28.35;21.01;100157.81;5384155;32;34773;-70
2023/06/15 13:37:00;;;;;;;;;;;;;;;28.52;21.07;100153.94;5381594;32;34652;-67
2023/06/15 13:40:06;;;;;;;;;;;;;;;29.34;20.25;100154.00;5378926;32;36450;-71
2023/06/15 13:43:11;;;;;;;;;;;;;;;28.98;20.25;100159.34;5379900;32;34212;-75
2023/06/15 13:46:17;;;;;;;;;;;;;;;29.37;20.46;100144.69;5376302;32;34060;-76
2023/06/15 13:49:26;;;;;;;;;;;;;;;28.50;20.65;100149.75;5376325;32;34271;-70
2023/06/15 13:52:33;;;;;;;;;;;;;;;28.42;21.18;100139.84;5370618;32;35876;-72
2023/06/15 13:55:36;;;;;;;;;;;;;;;28.46;21.03;100154.69;5366188;32;34155;-69
2023/06/15 13:58:38;;;;;;;;;;;;;;;28.41;20.75;100140.88;5383505;32;35477;-75
2023/06/15 14:01:40;;;;;;;;;;;;;;;28.71;21.15;100143.66;5377649;32;34117;-70
2023/06/15 14:04:42;;;;;;;;;;;;;;;28.54;21.43;100154.63;5384120;32;34181;-71
2023/06/15 14:07:44;;;;;;;;;;;;;;;28.33;21.49;100138.22;5383907;32;34072;-67
2023/06/15 14:10:47;;;;;;;;;;;;;;;28.29;21.26;100143.13;5422787;32;35518;-79
2023/06/15 14:13:50;;;;;;;;;;;;;;;28.98;20.56;100140.41;5405186;32;37874;-66
2023/06/15 14:16:53;;;;;;;;;;;;;;;27.57;22.01;100139.00;5408104;32;34269;-65
2023/06/15 14:19:55;;;;;;;;;;;;;;;27.24;22.60;100141.78;5420522;32;34584;-65
2023/06/15 14:22:57;;;;;;;;;;;;;;;27.75;22.17;100139.59;5418998;32;35539;-64
2023/06/15 14:26:00;;;;;;;;;;;;;;;27.52;22.50;100137.66;5410619;32;35572;-76
2023/06/15 14:29:02;;;;;;;;;;;;;;;26.93;23.27;100141.69;5422232;32;34445;-82
2023/06/15 14:32:04;;;;;;;;;;;;;;;27.87;22.53;100138.16;5427764;32;34283;-67
2023/06/15 14:35:07;;;;;;;;;;;;;;;27.14;23.27;100133.91;5428432;32;34401;-77
2023/06/15 14:38:08;;;;;;;;;;;;;;;27.75;22.33;100140.44;5424773;32;35369;-66
2023/06/15 14:41:10;;;;;;;;;;;;;;;27.02;23.04;100140.66;5430838;32;34345;-77
2023/06/15 14:44:13;;;;;;;;;;;;;;;28.55;21.77;100140.09;5428862;32;35054;-66
2023/06/15 14:47:16;;;;;;;;;;;;;;;26.84;23.31;100131.94;5432136;32;35309;-77
2023/06/15 14:50:19;;;;;;;;;;;;;;;27.34;22.76;100133.50;5428310;32;34879;-75
2023/06/15 14:53:21;;;;;;;;;;;;;;;27.86;22.47;100132.97;5430377;32;34209;-66
2023/06/15 14:56:27;;;;;;;;;;;;;;;26.36;23.94;100130.94;5428878;32;35417;-66
2023/06/15 14:59:29;;;;;;;;;;;;;;;26.88;23.47;100128.72;5415850;32;35465;-76
2023/06/15 15:02:31;;;;;;;;;;;;;;;27.22;23.77;100127.66;5431295;32;34401;-65
2023/06/15 15:05:33;;;;;;;;;;;;;;;27.34;23.60;100120.88;5425296;32;35299;-76
2023/06/15 15:08:35;;;;;;;;;;;;;;;27.44;23.51;100129.59;5432108;32;35058;-76
2023/06/15 15:11:37;;;;;;;;;;;;;;;27.73;23.21;100122.72;5427152;32;34345;-70
2023/06/15 15:14:39;;;;;;;;;;;;;;;26.94;24.20;100125.34;5431434;32;34174;-77
2023/06/15 15:17:42;;;;;;;;;;;;;;;27.11;23.93;100112.66;5425647;32;32800;-66
2023/06/15 15:20:44;;;;;;;;;;;;;;;27.88;23.14;100117.41;5427819;32;34447;-65
2023/06/15 15:23:46;;;;;;;;;;;;;;;26.28;24.79;100112.91;5429972;32;34929;-77
2023/06/15 15:26:48;;;;;;;;;;;;;;;27.64;23.40;100119.22;5424446;32;35860;-65
2023/06/15 15:29:50;;;;;;;;;;;;;;;26.82;24.23;100121.31;5416084;32;35015;-78
2023/06/15 15:32:52;;;;;;;;;;;;;;;27.47;23.48;100117.59;5425381;32;34486;-66
2023/06/15 15:35:54;;;;;;;;;;;;;;;26.53;24.39;100124.53;5427418;32;34510;-66
2023/06/15 15:38:56;;;;;;;;;;;;;;;26.14;25.23;100118.94;5426189;32;35895;-74
2023/06/15 15:41:59;;;;;;;;;;;;;;;26.37;24.63;100125.37;5425152;32;35127;-65